Time;durP1;ratioP1;P1;durP2;ratioP2;P2;SDS_P1;SDS_P2;PMS_P1;PMS_P2;Temp;Humidity;BMP_temperature;BMP_pressure;BME280_temperature;BME280_humidity;BME280_pressure;Samples;Min_cycle;Max_cycle;Signal;HPM_P1;HPM_P2
2021/03/24 00:04:31;;;;;;;23.10;11.60;;;;;;;;;;10307583;28;20037;-65
2021/03/24 00:09:28;;;;;;;39.97;15.93;;;;;;;;;;10326419;28;20045;-65
2021/03/24 00:14:27;;;;;;;23.27;10.03;;;;;;;;;;10311181;28;20674;-66
2021/03/24 00:19:26;;;;;;;43.97;18.00;;;;;;;;;;10312201;28;20053;-66
2021/03/24 00:24:25;;;;;;;42.58;17.70;;;;;;;;;;10315192;28;20062;-67
2021/03/24 00:29:23;;;;;;;22.50;11.00;;;;;;;;;;10307479;28;20588;-65
2021/03/24 00:34:20;;;;;;;48.22;18.50;;;;;;;;;;10314550;28;20040;-66
2021/03/24 00:39:18;;;;;;;30.27;13.33;;;;;;;;;;10304304;28;20045;-63
2021/03/24 00:44:15;;;;;;;13.57;7.83;;;;;;;;;;10310813;28;20037;-64
2021/03/24 00:49:13;;;;;;;20.57;8.87;;;;;;;;;;10323920;28;20044;-64
2021/03/24 00:54:10;;;;;;;20.40;9.37;;;;;;;;;;10312663;28;20087;-64
2021/03/24 00:59:07;;;;;;;31.27;13.43;;;;;;;;;;10316147;28;20407;-65
2021/03/24 01:04:06;;;;;;;35.37;15.77;;;;;;;;;;10332545;28;20155;-64
2021/03/24 01:09:07;;;;;;;18.13;7.53;;;;;;;;;;10311244;28;20044;-64
2021/03/24 01:14:06;;;;;;;17.38;8.55;;;;;;;;;;10328771;28;20049;-65
2021/03/24 01:19:04;;;;;;;20.00;7.25;;;;;;;;;;10321977;28;20034;-66
2021/03/24 01:24:01;;;;;;;23.08;10.55;;;;;;;;;;10322948;28;20025;-66
2021/03/24 01:28:59;;;;;;;20.07;9.57;;;;;;;;;;10308431;28;20370;-68
2021/03/24 01:33:57;;;;;;;20.80;10.25;;;;;;;;;;10312931;28;20175;-63
2021/03/24 01:38:55;;;;;;;14.38;7.22;;;;;;;;;;10316394;28;20131;-65
2021/03/24 01:43:54;;;;;;;12.57;5.37;;;;;;;;;;10324896;28;20040;-64
2021/03/24 01:48:52;;;;;;;18.80;8.38;;;;;;;;;;10331887;28;20295;-64
2021/03/24 01:53:49;;;;;;;9.50;6.40;;;;;;;;;;10323561;28;20036;-64
2021/03/24 01:58:47;;;;;;;24.63;13.20;;;;;;;;;;10331648;28;20037;-65
2021/03/24 02:03:44;;;;;;;16.37;10.17;;;;;;;;;;10321360;28;20296;-65
2021/03/24 02:08:45;;;;;;;23.33;9.57;;;;;;;;;;10332097;28;20091;-64
2021/03/24 02:13:46;;;;;;;25.20;9.82;;;;;;;;;;10327186;28;20067;-63
2021/03/24 02:18:45;;;;;;;17.42;8.15;;;;;;;;;;10330883;28;20072;-65
2021/03/24 02:23:46;;;;;;;10.10;6.13;;;;;;;;;;10333779;28;20033;-65
2021/03/24 02:28:47;;;;;;;17.35;6.50;;;;;;;;;;10310851;28;20767;-65
2021/03/24 02:33:46;;;;;;;9.65;4.90;;;;;;;;;;10335847;28;20036;-66
2021/03/24 02:38:44;;;;;;;19.10;7.47;;;;;;;;;;10321439;28;20762;-67
2021/03/24 02:43:42;;;;;;;8.85;4.85;;;;;;;;;;10326257;28;20044;-66
2021/03/24 02:48:40;;;;;;;12.32;5.75;;;;;;;;;;10334150;28;20041;-68
2021/03/24 02:53:39;;;;;;;;;;;;;;;;;;10317995;28;20033;-64
2021/03/24 02:58:37;;;;;;;19.35;5.28;;;;;;;;;;10313362;28;19920;-64
2021/03/24 03:03:39;;;;;;;10.15;5.88;;;;;;;;;;10315331;28;20041;-64
2021/03/24 03:08:39;;;;;;;14.63;6.32;;;;;;;;;;10315985;28;20033;-66
2021/03/24 03:13:39;;;;;;;15.95;7.45;;;;;;;;;;10312222;28;20075;-65
2021/03/24 03:18:54;;;;;;;17.20;9.52;;;;;;;;;;10330150;28;20076;-64
2021/03/24 03:23:53;;;;;;;22.67;10.32;;;;;;;;;;10325235;28;20061;-65
2021/03/24 03:28:54;;;;;;;10.32;5.20;;;;;;;;;;10341184;28;20124;-65
2021/03/24 03:33:52;;;;;;;23.25;11.38;;;;;;;;;;10311132;28;20120;-65
2021/03/24 03:38:49;;;;;;;;;;;;;;;;;;10308026;28;20083;-65
2021/03/24 03:43:48;;;;;;;7.47;3.80;;;;;;;;;;10303622;28;19970;-64
2021/03/24 03:48:45;;;;;;;;;;;;;;;;;;10301545;28;20064;-65
2021/03/24 03:53:49;;;;;;;25.48;13.80;;;;;;;;;;10313696;28;19952;-66
2021/03/24 03:59:10;;;;;;;24.10;13.38;;;;;;;;;;10323299;28;20029;-66
2021/03/24 04:04:13;;;;;;;25.27;14.13;;;;;;;;;;10305188;28;20041;-66
2021/03/24 04:09:11;;;;;;;20.02;11.15;;;;;;;;;;10324048;28;20043;-65
2021/03/24 04:14:10;;;;;;;29.77;13.05;;;;;;;;;;10320142;28;20033;-65
2021/03/24 04:19:08;;;;;;;24.20;12.90;;;;;;;;;;10329964;28;20398;-66
2021/03/24 04:24:09;;;;;;;24.83;12.65;;;;;;;;;;10328201;28;20045;-65
2021/03/24 04:29:09;;;;;;;37.92;17.23;;;;;;;;;;10323853;28;20037;-65
2021/03/24 04:34:06;;;;;;;29.73;12.45;;;;;;;;;;10301888;28;20041;-64
2021/03/24 04:39:07;;;;;;;24.40;11.73;;;;;;;;;;10326377;28;20042;-65
2021/03/24 04:44:07;;;;;;;28.65;15.55;;;;;;;;;;10316673;28;20045;-64
2021/03/24 04:49:25;;;;;;;24.50;10.82;;;;;;;;;;10329386;28;20057;-64
2021/03/24 04:54:27;;;;;;;28.50;13.23;;;;;;;;;;10309333;28;20041;-66
2021/03/24 04:59:30;;;;;;;21.83;9.38;;;;;;;;;;10313647;28;20091;-65
2021/03/24 05:04:27;;;;;;;8.60;5.32;;;;;;;;;;10315344;28;20391;-65
2021/03/24 05:09:24;;;;;;;14.50;5.77;;;;;;;;;;10312666;28;20049;-64
2021/03/24 05:14:37;;;;;;;14.57;6.60;;;;;;;;;;10316317;28;20120;-66
2021/03/24 05:19:34;;;;;;;18.10;6.72;;;;;;;;;;10323622;28;20112;-65
2021/03/24 05:24:34;;;;;;;29.90;9.80;;;;;;;;;;10337628;28;20052;-65
2021/03/24 05:29:36;;;;;;;19.65;8.85;;;;;;;;;;10306241;28;20033;-65
2021/03/24 05:34:35;;;;;;;11.20;6.38;;;;;;;;;;10325607;28;20087;-64
2021/03/24 05:39:34;;;;;;;28.58;11.77;;;;;;;;;;10345365;28;20051;-65
2021/03/24 05:44:40;;;;;;;34.13;14.82;;;;;;;;;;10326280;28;20041;-65
2021/03/24 05:49:43;;;;;;;38.45;14.68;;;;;;;;;;10322333;28;20033;-64
2021/03/24 05:54:44;;;;;;;37.17;14.55;;;;;;;;;;10326038;28;20056;-65
2021/03/24 05:59:50;;;;;;;38.22;15.88;;;;;;;;;;10333373;28;20036;-65
2021/03/24 06:04:52;;;;;;;53.65;20.98;;;;;;;;;;10304324;28;20029;-67
2021/03/24 06:10:02;;;;;;;52.97;20.65;;;;;;;;;;10330127;28;20315;-65
2021/03/24 06:15:05;;;;;;;56.00;19.02;;;;;;;;;;10326370;28;20029;-64
2021/03/24 06:20:22;;;;;;;47.50;18.80;;;;;;;;;;10338873;28;20033;-65
2021/03/24 06:25:25;;;;;;;54.13;21.73;;;;;;;;;;10326493;28;20040;-65
2021/03/24 06:30:26;;;;;;;58.13;23.13;;;;;;;;;;10303981;28;20303;-64
2021/03/24 06:35:42;;;;;;;57.33;21.65;;;;;;;;;;10305427;28;20397;-64
2021/03/24 06:40:57;;;;;;;54.55;22.85;;;;;;;;;;10307597;28;21403;-64
2021/03/24 06:46:03;;;;;;;53.83;22.23;;;;;;;;;;10326890;28;20120;-65
2021/03/24 06:51:39;;;;;;;51.40;20.05;;;;;;;;;;10313025;28;20749;-65
2021/03/24 06:56:50;;;;;;;47.47;20.77;;;;;;;;;;10188335;28;20140;-66
2021/03/24 07:01:47;;;;;;;36.58;17.63;;;;;;;;;;10286971;28;20071;-65
2021/03/24 07:06:52;;;;;;;28.25;12.75;;;;;;;;;;10310655;28;20047;-66
2021/03/24 07:11:56;;;;;;;21.35;12.00;;;;;;;;;;10300441;28;20028;-65
2021/03/24 07:17:02;;;;;;;51.72;20.10;;;;;;;;;;10314949;28;20457;-66
2021/03/24 07:22:03;;;;;;;31.90;15.52;;;;;;;;;;10335449;28;20091;-64
2021/03/24 07:27:19;;;;;;;39.92;13.73;;;;;;;;;;10317881;28;20499;-68
2021/03/24 07:32:35;;;;;;;53.40;21.08;;;;;;;;;;10303945;28;20045;-65
2021/03/24 07:37:35;;;;;;;41.40;18.58;;;;;;;;;;10304991;28;20025;-66
2021/03/24 07:42:33;;;;;;;47.15;19.13;;;;;;;;;;10313561;28;20024;-65
2021/03/24 07:47:51;;;;;;;51.63;20.93;;;;;;;;;;10321751;28;20032;-64
2021/03/24 07:53:12;;;;;;;40.00;16.77;;;;;;;;;;10302434;28;20087;-64
2021/03/24 07:58:21;;;;;;;41.15;17.30;;;;;;;;;;10315668;28;20044;-64
2021/03/24 08:03:25;;;;;;;46.17;20.02;;;;;;;;;;10290875;28;21259;-65
2021/03/24 08:08:28;;;;;;;52.65;20.35;;;;;;;;;;10306139;28;20483;-64
2021/03/24 08:13:31;;;;;;;41.90;17.17;;;;;;;;;;10318908;28;20044;-64
2021/03/24 08:18:32;;;;;;;29.63;14.27;;;;;;;;;;10313530;28;20030;-65
2021/03/24 08:23:38;;;;;;;44.13;19.30;;;;;;;;;;10309688;28;20447;-67
2021/03/24 08:28:42;;;;;;;52.05;21.15;;;;;;;;;;10294233;28;20037;-65
2021/03/24 08:33:46;;;;;;;50.03;19.58;;;;;;;;;;10296921;28;20041;-67
2021/03/24 08:39:07;;;;;;;54.85;20.30;;;;;;;;;;10297054;28;20052;-66
2021/03/24 08:44:10;;;;;;;47.55;19.52;;;;;;;;;;10309942;28;20174;-66
2021/03/24 08:49:07;;;;;;;60.70;25.52;;;;;;;;;;10297469;28;21058;-67
2021/03/24 08:54:14;;;;;;;57.23;22.77;;;;;;;;;;10306765;28;20041;-66
2021/03/24 08:59:30;;;;;;;49.85;19.33;;;;;;;;;;10283222;28;20040;-66
2021/03/24 09:04:31;;;;;;;51.70;20.02;;;;;;;;;;10306839;28;20060;-67
2021/03/24 09:09:32;;;;;;;62.22;25.48;;;;;;;;;;10295091;28;20069;-65
2021/03/24 09:14:37;;;;;;;66.50;27.08;;;;;;;;;;10296926;28;20398;-65
2021/03/24 09:19:34;;;;;;;49.20;22.35;;;;;;;;;;10307612;28;20116;-65
2021/03/24 09:24:49;;;;;;;54.00;23.47;;;;;;;;;;10302655;28;20509;-66
2021/03/24 09:30:02;;;;;;;52.92;22.33;;;;;;;;;;10300651;28;20043;-67
2021/03/24 09:35:18;;;;;;;62.63;27.17;;;;;;;;;;10302658;28;20036;-65
2021/03/24 09:40:30;;;;;;;65.95;27.98;;;;;;;;;;10307299;28;20033;-67
2021/03/24 09:45:30;;;;;;;53.88;22.90;;;;;;;;;;10311091;28;20048;-67
2021/03/24 09:50:33;;;;;;;63.33;28.88;;;;;;;;;;10306016;28;20040;-66
2021/03/24 09:55:46;;;;;;;61.53;24.20;;;;;;;;;;10307271;28;20030;-66
2021/03/24 10:01:02;;;;;;;54.88;22.92;;;;;;;;;;10304719;28;20234;-65
2021/03/24 10:06:00;;;;;;;45.83;22.48;;;;;;;;;;10306667;28;20386;-66
2021/03/24 10:11:01;;;;;;;53.90;21.77;;;;;;;;;;10308222;28;20490;-66
2021/03/24 10:16:04;;;;;;;49.03;21.60;;;;;;;;;;10296072;28;20593;-66
2021/03/24 10:21:04;;;;;;;58.53;22.50;;;;;;;;;;10312538;28;20052;-67
2021/03/24 10:26:21;;;;;;;52.35;20.50;;;;;;;;;;10313932;28;20072;-67
2021/03/24 10:31:21;;;;;;;52.78;22.83;;;;;;;;;;10255825;28;20042;-66
2021/03/24 10:36:22;;;;;;;44.38;21.48;;;;;;;;;;10305548;28;20048;-65
2021/03/24 10:41:19;;;;;;;48.13;18.60;;;;;;;;;;10341213;23;20054;-65
2021/03/24 10:46:29;;;;;;;42.30;17.63;;;;;;;;;;10359432;28;20029;-65
2021/03/24 10:51:39;;;;;;;49.85;18.65;;;;;;;;;;10367329;28;20058;-65
2021/03/24 10:56:42;;;;;;;36.42;18.05;;;;;;;;;;10349658;28;20041;-64
2021/03/24 11:01:43;;;;;;;44.75;18.33;;;;;;;;;;10365444;28;20051;-64
2021/03/24 11:07:16;;;;;;;45.80;17.95;;;;;;;;;;10360396;28;20056;-63
2021/03/24 11:12:15;;;;;;;39.83;15.77;;;;;;;;;;10287418;28;20029;-64
2021/03/24 11:17:20;;;;;;;32.95;14.05;;;;;;;;;;10359860;28;20032;-63
2021/03/24 11:22:32;;;;;;;44.97;18.08;;;;;;;;;;10367795;28;20036;-64
2021/03/24 11:27:30;;;;;;;31.80;14.25;;;;;;;;;;10349054;28;20044;-65
2021/03/24 11:32:57;;;;;;;41.43;16.57;;;;;;;;;;10346263;28;20490;-64
2021/03/24 11:38:07;;;;;;;37.33;16.35;;;;;;;;;;10335485;28;20033;-63
2021/03/24 11:43:07;;;;;;;34.88;15.25;;;;;;;;;;10350528;28;20051;-62
2021/03/24 11:48:09;;;;;;;42.45;16.52;;;;;;;;;;10337002;28;20036;-63
2021/03/24 11:53:13;;;;;;;42.03;15.32;;;;;;;;;;10357878;28;20061;-62
2021/03/24 11:58:30;;;;;;;30.73;14.77;;;;;;;;;;10339525;28;20558;-64
2021/03/24 12:03:30;;;;;;;37.42;16.27;;;;;;;;;;10344558;28;20421;-63
2021/03/24 12:08:46;;;;;;;28.45;14.15;;;;;;;;;;10331102;28;20067;-64
2021/03/24 12:13:45;;;;;;;37.70;13.85;;;;;;;;;;10366902;28;20040;-66
2021/03/24 12:18:47;;;;;;;28.70;11.30;;;;;;;;;;10343449;28;20024;-65
2021/03/24 12:23:46;;;;;;;29.52;12.20;;;;;;;;;;10352253;28;20054;-63
2021/03/24 12:28:44;;;;;;;24.65;11.73;;;;;;;;;;10339298;28;20583;-65
2021/03/24 12:33:47;;;;;;;26.83;12.23;;;;;;;;;;10366136;28;20105;-63
2021/03/24 12:38:59;;;;;;;24.98;11.70;;;;;;;;;;10292560;28;20107;-61
2021/03/24 12:44:16;;;;;;;24.67;11.13;;;;;;;;;;10318000;28;673937;-62
2021/03/24 12:49:22;;;;;;;16.13;7.88;;;;;;;;;;10345316;28;20021;-62
2021/03/24 12:54:21;;;;;;;18.90;9.50;;;;;;;;;;10348545;28;20042;-62
2021/03/24 12:59:38;;;;;;;22.95;9.27;;;;;;;;;;10343220;28;20041;-62
2021/03/24 13:04:41;;;;;;;19.45;7.95;;;;;;;;;;10362176;28;20281;-63
2021/03/24 13:09:57;;;;;;;21.42;9.38;;;;;;;;;;10354032;28;20547;-62
2021/03/24 13:15:00;;;;;;;17.92;8.80;;;;;;;;;;10367883;28;20513;-62
2021/03/24 13:19:57;;;;;;;17.65;8.73;;;;;;;;;;10359095;28;20032;-61
2021/03/24 13:25:07;;;;;;;20.70;8.77;;;;;;;;;;10351956;28;20052;-63
2021/03/24 13:30:17;;;;;;;17.90;8.63;;;;;;;;;;10364580;28;20513;-64
2021/03/24 13:35:19;;;;;;;18.65;7.78;;;;;;;;;;10354098;28;20540;-64
2021/03/24 13:40:19;;;;;;;16.67;8.77;;;;;;;;;;10361108;28;20091;-64
2021/03/24 13:45:23;;;;;;;20.95;7.30;;;;;;;;;;10361385;28;20040;-65
2021/03/24 13:50:26;;;;;;;12.40;5.90;;;;;;;;;;10342672;28;20055;-64
2021/03/24 13:55:36;;;;;;;13.77;7.40;;;;;;;;;;10367749;28;20059;-66
2021/03/24 14:00:41;;;;;;;8.15;4.45;;;;;;;;;;10369583;28;20430;-65
2021/03/24 14:05:58;;;;;;;10.68;6.65;;;;;;;;;;10365526;28;20558;-65
2021/03/24 14:11:05;;;;;;;15.00;6.70;;;;;;;;;;10359177;28;20043;-64
2021/03/24 14:16:02;;;;;;;10.32;4.30;;;;;;;;;;10370442;28;20993;-63
2021/03/24 14:21:00;;;;;;;27.53;13.50;;;;;;;;;;10365949;28;20044;-63
2021/03/24 14:25:57;;;;;;;;;;;;;;;;;;10356380;28;20422;-63
2021/03/24 14:31:26;;;;;;;12.07;5.22;;;;;;;;;;10367932;28;20377;-63
2021/03/24 14:36:33;;;;;;;10.82;4.30;;;;;;;;;;10326085;28;20528;-63
2021/03/24 14:41:45;;;;;;;11.73;6.65;;;;;;;;;;10373787;28;20114;-63
2021/03/24 14:46:58;;;;;;;23.60;10.15;;;;;;;;;;10369735;28;20029;-62
2021/03/24 14:52:08;;;;;;;11.82;5.50;;;;;;;;;;10376629;28;20036;-62
2021/03/24 14:57:11;;;;;;;9.88;4.45;;;;;;;;;;10364153;28;20083;-63
2021/03/24 15:02:24;;;;;;;15.02;7.53;;;;;;;;;;10364835;28;20044;-63
2021/03/24 15:07:33;;;;;;;5.95;3.47;;;;;;;;;;10370202;28;20118;-63
2021/03/24 15:12:31;;;;;;;13.23;6.03;;;;;;;;;;10352717;28;20506;-63
2021/03/24 15:17:45;;;;;;;14.57;6.40;;;;;;;;;;10324290;28;20122;-63
2021/03/24 15:22:47;;;;;;;9.60;5.38;;;;;;;;;;10365997;28;21823;-64
2021/03/24 15:27:58;;;;;;;9.23;4.55;;;;;;;;;;10347881;28;20064;-63
2021/03/24 15:32:55;;;;;;;9.65;4.07;;;;;;;;;;10356799;28;20029;-63
2021/03/24 15:38:11;;;;;;;10.80;3.03;;;;;;;;;;10360806;28;20044;-64
2021/03/24 15:43:12;;;;;;;37.13;19.40;;;;;;;;;;10374422;28;20105;-62
2021/03/24 15:48:21;;;;;;;38.58;17.85;;;;;;;;;;10347028;28;20544;-62
2021/03/24 15:53:24;;;;;;;9.77;3.72;;;;;;;;;;10351112;28;20037;-63
2021/03/24 15:58:27;;;;;;;8.95;4.40;;;;;;;;;;10372657;28;20036;-63
2021/03/24 16:03:43;;;;;;;35.53;18.45;;;;;;;;;;10349253;28;20047;-64
2021/03/24 16:08:43;;;;;;;34.17;15.98;;;;;;;;;;10337614;28;20063;-64
2021/03/24 16:14:16;;;;;;;9.20;5.30;;;;;;;;;;10352725;28;20060;-62
2021/03/24 16:19:32;;;;;;;3.75;2.28;;;;;;;;;;10212057;28;20060;-59
2021/03/24 16:24:50;;;;;;;5.78;2.88;;;;;;;;;;10337794;28;20040;-65
2021/03/24 16:29:53;;;;;;;8.02;2.95;;;;;;;;;;10328822;28;20517;-64
2021/03/24 16:34:53;;;;;;;2.78;2.03;;;;;;;;;;10338665;28;20498;-64
2021/03/24 16:39:53;;;;;;;5.45;3.10;;;;;;;;;;10341696;28;20072;-65
2021/03/24 16:44:53;;;;;;;18.33;7.65;;;;;;;;;;10334784;28;20036;-65
2021/03/24 16:50:09;;;;;;;17.17;8.48;;;;;;;;;;10323391;28;20505;-66
2021/03/24 16:55:26;;;;;;;16.25;7.32;;;;;;;;;;10329333;28;20040;-63
2021/03/24 17:00:30;;;;;;;2.08;1.88;;;;;;;;;;10338518;28;21123;-65
2021/03/24 17:05:46;;;;;;;11.02;5.20;;;;;;;;;;10325195;28;20102;-65
2021/03/24 17:10:49;;;;;;;9.10;4.20;;;;;;;;;;10345574;28;20514;-65
2021/03/24 17:15:49;;;;;;;54.35;24.88;;;;;;;;;;10340699;28;20064;-65
2021/03/24 17:21:02;;;;;;;15.55;9.32;;;;;;;;;;10336883;28;20410;-64
2021/03/24 17:26:07;;;;;;;12.23;8.18;;;;;;;;;;10328099;28;20623;-65
2021/03/24 17:31:05;;;;;;;10.63;7.72;;;;;;;;;;10336896;28;20040;-65
2021/03/24 17:36:05;;;;;;;11.23;8.53;;;;;;;;;;10329730;28;20040;-64
2021/03/24 17:41:08;;;;;;;12.13;7.32;;;;;;;;;;10354934;28;20053;-64
2021/03/24 17:46:09;;;;;;;18.50;10.38;;;;;;;;;;10344028;28;20112;-66
2021/03/24 17:51:26;;;;;;;41.35;19.13;;;;;;;;;;10363265;28;20056;-64
2021/03/24 17:56:26;;;;;;;51.10;23.58;;;;;;;;;;10375066;28;20036;-65
2021/03/24 18:01:43;;;;;;;41.45;19.38;;;;;;;;;;10358855;28;20029;-63
2021/03/24 18:06:43;;;;;;;41.85;18.83;;;;;;;;;;10354453;28;20055;-63
2021/03/24 18:11:46;;;;;;;48.75;17.75;;;;;;;;;;10375301;28;20044;-62
2021/03/24 18:16:49;;;;;;;44.72;17.27;;;;;;;;;;10368008;28;20101;-64
2021/03/24 18:21:51;;;;;;;40.25;18.92;;;;;;;;;;10369074;28;20032;-64
2021/03/24 18:26:48;;;;;;;47.25;20.38;;;;;;;;;;10356934;28;20047;-65
2021/03/24 18:31:57;;;;;;;33.00;15.80;;;;;;;;;;10353327;28;20510;-64
2021/03/24 18:36:56;;;;;;;47.45;20.60;;;;;;;;;;10346765;28;20079;-64
2021/03/24 18:41:55;;;;;;;24.10;9.60;;;;;;;;;;10351860;28;20033;-64
2021/03/24 18:46:52;;;;;;;24.27;9.65;;;;;;;;;;10348128;28;20028;-65
2021/03/24 18:51:57;;;;;;;49.80;17.90;;;;;;;;;;10370535;28;20215;-64
2021/03/24 18:56:58;;;;;;;46.20;17.92;;;;;;;;;;10346884;28;20048;-64
2021/03/24 19:01:57;;;;;;;26.92;10.35;;;;;;;;;;10340161;28;20040;-64
2021/03/24 19:06:57;;;;;;;42.17;17.33;;;;;;;;;;10379887;28;20024;-66
2021/03/24 19:11:55;;;;;;;45.67;15.40;;;;;;;;;;10338292;28;20047;-64
2021/03/24 19:16:53;;;;;;;34.65;14.07;;;;;;;;;;10365247;28;20338;-65
2021/03/24 19:21:52;;;;;;;42.07;18.47;;;;;;;;;;10360805;28;20063;-63
2021/03/24 19:26:58;;;;;;;20.20;7.65;;;;;;;;;;10354145;28;20159;-65
2021/03/24 19:32:11;;;;;;;12.93;7.43;;;;;;;;;;10354969;28;20438;-64
2021/03/24 19:37:34;;;;;;;29.88;12.63;;;;;;;;;;10360796;28;20039;-65
2021/03/24 19:42:32;;;;;;;37.65;15.43;;;;;;;;;;10350995;28;20032;-64
2021/03/24 19:47:56;;;;;;;16.83;6.35;;;;;;;;;;10349786;28;20032;-64
2021/03/24 19:52:54;;;;;;;13.85;5.40;;;;;;;;;;10343643;28;20044;-64
2021/03/24 19:57:58;;;;;;;8.83;4.80;;;;;;;;;;10355088;28;20036;-64
2021/03/24 20:02:58;;;;;;;11.40;4.60;;;;;;;;;;10330051;28;20124;-64
2021/03/24 20:08:08;;;;;;;9.98;5.75;;;;;;;;;;10340239;28;20636;-64
2021/03/24 20:13:09;;;;;;;18.80;5.90;;;;;;;;;;10353707;28;20174;-66
2021/03/24 20:18:15;;;;;;;12.70;5.25;;;;;;;;;;10364601;28;20416;-64
2021/03/24 20:23:13;;;;;;;19.75;7.15;;;;;;;;;;10364415;28;20588;-63
2021/03/24 20:28:11;;;;;;;12.63;6.40;;;;;;;;;;10355661;28;21126;-65
2021/03/24 20:33:08;;;;;;;7.27;3.10;;;;;;;;;;10336776;28;20456;-62
2021/03/24 20:38:18;;;;;;;14.00;6.17;;;;;;;;;;10353479;28;20047;-63
2021/03/24 20:43:20;;;;;;;11.07;5.53;;;;;;;;;;10350160;28;20060;-63
2021/03/24 20:48:17;;;;;;;18.42;6.25;;;;;;;;;;10350973;28;20558;-62
2021/03/24 20:53:15;;;;;;;7.43;5.00;;;;;;;;;;10337941;28;20447;-65
2021/03/24 20:58:21;;;;;;;11.25;5.97;;;;;;;;;;10337740;28;20032;-65
2021/03/24 21:03:20;;;;;;;13.30;5.30;;;;;;;;;;10335691;28;20119;-66
2021/03/24 21:08:18;;;;;;;10.65;6.35;;;;;;;;;;10344440;28;20048;-65
2021/03/24 21:13:16;;;;;;;86.53;39.35;;;;;;;;;;10368384;28;20165;-65
2021/03/24 21:18:25;;;;;;;65.15;32.90;;;;;;;;;;10367643;28;20021;-65
2021/03/24 21:23:23;;;;;;;30.73;18.38;;;;;;;;;;10356162;28;20028;-65
2021/03/24 21:28:21;;;;;;;32.30;18.60;;;;;;;;;;10364369;28;20089;-64
2021/03/24 21:33:21;;;;;;;32.38;17.73;;;;;;;;;;10372020;28;20024;-65
2021/03/24 21:38:18;;;;;;;32.35;16.92;;;;;;;;;;10358791;28;20013;-65
2021/03/24 21:43:16;;;;;;;32.27;18.77;;;;;;;;;;10364659;28;20021;-64
2021/03/24 21:48:33;;;;;;;29.27;15.97;;;;;;;;;;10358256;28;20031;-63
2021/03/24 21:53:31;;;;;;;25.88;14.07;;;;;;;;;;10359033;28;20406;-64
2021/03/24 21:58:28;;;;;;;;;;;;;;;;;;10327159;28;20037;-63
2021/03/24 22:03:44;;;;;;;27.83;15.98;;;;;;;;;;10358521;28;19916;-64
2021/03/24 22:08:42;;;;;;;30.08;17.58;;;;;;;;;;10349365;28;20045;-64
2021/03/24 22:13:39;;;;;;;54.23;25.03;;;;;;;;;;10376368;28;20040;-64
2021/03/24 22:18:39;;;;;;;49.30;20.17;;;;;;;;;;10375101;28;20104;-64
2021/03/24 22:23:36;;;;;;;48.03;20.55;;;;;;;;;;10367666;28;20075;-64
2021/03/24 22:28:40;;;;;;;53.80;21.27;;;;;;;;;;10342702;28;20534;-65
2021/03/24 22:33:56;;;;;;;62.25;25.40;;;;;;;;;;10367300;28;20037;-64
2021/03/24 22:38:56;;;;;;;45.53;20.67;;;;;;;;;;10366202;28;20468;-63
2021/03/24 22:43:54;;;;;;;47.47;22.60;;;;;;;;;;10338676;28;20070;-64
2021/03/24 22:48:54;;;;;;;40.60;18.10;;;;;;;;;;10365186;22;20469;-67
2021/03/24 22:53:55;;;;;;;37.35;16.60;;;;;;;;;;10315958;28;20055;-67
2021/03/24 22:58:55;;;;;;;36.50;16.88;;;;;;;;;;10334584;28;20037;-67
2021/03/24 23:03:58;;;;;;;29.05;13.25;;;;;;;;;;10329165;28;20052;-67
2021/03/24 23:08:59;;;;;;;29.30;14.20;;;;;;;;;;10328371;28;20032;-67
2021/03/24 23:14:09;;;;;;;18.13;9.55;;;;;;;;;;10261343;28;20624;-67
2021/03/24 23:19:13;;;;;;;20.95;10.70;;;;;;;;;;10304977;28;20411;-67
2021/03/24 23:24:12;;;;;;;23.98;8.57;;;;;;;;;;10322811;28;20032;-65
2021/03/24 23:29:11;;;;;;;7.60;4.35;;;;;;;;;;10316934;28;20117;-67
2021/03/24 23:34:10;;;;;;;8.52;3.85;;;;;;;;;;10292614;28;20083;-66
2021/03/24 23:39:08;;;;;;;8.55;5.35;;;;;;;;;;10291668;28;20084;-66
2021/03/24 23:44:07;;;;;;;17.50;6.50;;;;;;;;;;10279768;28;20049;-66
2021/03/24 23:49:05;;;;;;;4.10;3.20;;;;;;;;;;10277207;28;20602;-65
2021/03/24 23:54:02;;;;;;;7.93;4.37;;;;;;;;;;10317301;28;20075;-66
2021/03/24 23:59:00;;;;;;;10.90;4.53;;;;;;;;;;10303210;28;20041;-67
